Airfield :
LOGIN :

Register | Disclaimer

   EN    FR    IT 

 










Legend :    VFR   Marginal VFR   IFR   Intensive IFR   Very Intensive IFR
Visi :
Ceiling :
>= 8 km
>= 3000ft
5 to 8 km
1000 to 3000 ft
1500m to 5 km
500 to 1000 ft
800 to 1500m
200 to 500 ft
< 800m
< 200 ft
Symbols :   Thunderstorms  Fog  Heavy snow  Heavy precipitations  Wind > 20 kt
SIGMETs :     Misc.  Thunderstorms  Icing  Turbulence  Mountain Waves  Volcanic Ashes







- Airport Elevation : 195 ft
- Download approach charts


LFMY - Salon de Provence

CURRENT METAR :
  • 262100Z AUTO 34012KT CAVOK 21/08 Q1010

EXPIRED METARs :
  • 262030Z AUTO 33010KT 290V350 CAVOK 21/08 Q1010
  • 262000Z AUTO 32009KT 290V350 CAVOK 21/08 Q1010
  • 261930Z AUTO 32010KT 290V350 CAVOK 22/08 Q1010
  • 261900Z AUTO 33010KT CAVOK 22/08 Q1010
  • 261830Z AUTO 33015KT CAVOK 23/08 Q1010

TAF TAF LFMY
Valid from the 26 at 15:00 until the 27 at 15:00 UTC


261400Z 2615/2715 20012KT CAVOK
BECMG 2616/2618 34012G22KT
No reported NOTAMs for that airfield.
1 SIGMET reported for the Marseille FIR (LFMM) :
 
Severe turbulence
LFMM SIGMET 6 VALID 261900/262100 LFPW
LFMM MARSEILLE FIR/UIR SEV TURB FCST WI N4145 E00430 - N4200 E00430 - N4215 E00345 - N4345 E00445 - N4530 E00645 - N4145 E00430 FL260/340 STNR WKN=



MET'MAP, your aeronautical weather chart ! - Copyright ORBIFLY December 2007 - Disclaimer

ORBIFLY MET'MAP TEAM :

Programming & Development : Alexandra Zaïnal
Concept & Development : Baudouin d'Aumeries
Co-Development & Prog : Marc-Olivier Méhu
Technical & hardware support : Manuel Goepfert

Contact : metmap@orbifly.com




SOURCES & CREDITS :

   NOAA